Time;durP1;ratioP1;P1;durP2;ratioP2;P2;SDS_P1;SDS_P2;PMS_P1;PMS_P2;Temp;Humidity;BMP_temperature;BMP_pressure;BME280_temperature;BME280_humidity;BME280_pressure;Samples;Min_cycle;Max_cycle;Signal;HPM_P1;HPM_P2
2022/11/16 00:01:19;;;;;;;264.35;127.50;;;;;;;5.20;74.86;94958.72;5090731;28;20417;-77
2022/11/16 00:03:45;;;;;;;289.70;135.55;;;;;;;5.50;74.84;95016.91;5072341;28;20157;-77
2022/11/16 00:06:12;;;;;;;295.30;139.05;;;;;;;5.14;74.45;94959.69;5072457;28;20556;-77
2022/11/16 00:09:20;;;;;;;286.65;133.65;;;;;;;5.00;74.79;94928.53;5071645;28;20054;-77
2022/11/16 00:11:31;;;;;;;288.27;133.70;;;;;;;5.59;74.12;95014.66;5090490;28;20070;-77
2022/11/16 00:13:57;;;;;;;265.02;121.30;;;;;;;5.04;74.06;94926.19;5072354;28;20036;-77
2022/11/16 00:16:22;;;;;;;277.13;125.80;;;;;;;4.85;74.05;94880.25;5090454;28;20122;-77
2022/11/16 00:18:48;;;;;;;272.17;130.40;;;;;;;5.31;73.12;94960.44;5072404;28;20055;-77
2022/11/16 00:21:13;;;;;;;281.75;128.98;;;;;;;4.52;73.35;94837.28;5072263;28;20040;-77
2022/11/16 00:23:38;;;;;;;240.90;111.43;;;;;;;5.11;73.88;94932.06;5090137;28;20452;-77
2022/11/16 00:26:07;;;;;;;206.68;100.45;;;;;;;5.07;73.66;94920.44;5072452;28;20052;-77
2022/11/16 00:28:33;;;;;;;195.68;93.03;;;;;;;5.61;73.10;94999.44;5090754;28;20055;-77
2022/11/16 00:31:00;;;;;;;188.68;91.65;;;;;;;5.02;73.15;94934.34;5089603;28;20540;-78
2022/11/16 00:33:26;;;;;;;193.10;87.35;;;;;;;5.55;73.65;94992.53;5090423;28;20172;-77
2022/11/16 00:35:51;;;;;;;178.93;86.00;;;;;;;5.48;72.90;94987.47;5090143;28;20469;-77
2022/11/16 00:38:17;;;;;;;162.93;82.07;;;;;;;5.26;72.06;94960.38;5071655;28;20119;-77
2022/11/16 00:40:42;;;;;;;173.82;84.80;;;;;;;4.56;72.16;94825.25;5071597;28;20279;-77
2022/11/16 00:43:07;;;;;;;175.57;83.72;;;;;;;5.52;72.83;94993.00;5089718;28;20039;-77
2022/11/16 00:45:33;;;;;;;178.02;84.65;;;;;;;5.31;72.37;94955.16;5071042;28;20620;-77
2022/11/16 00:47:58;;;;;;;169.45;80.75;;;;;;;4.79;72.67;94881.22;5089674;28;20047;-77
2022/11/16 00:50:24;;;;;;;168.27;79.75;;;;;;;5.31;72.80;94955.97;5089520;28;20079;-77
2022/11/16 00:52:49;;;;;;;177.23;80.90;;;;;;;5.41;72.73;94984.22;5089716;28;20044;-77
2022/11/16 00:55:14;;;;;;;171.80;80.20;;;;;;;5.42;72.48;94981.31;5089513;28;20517;-77
2022/11/16 00:57:40;;;;;;;166.75;79.35;;;;;;;5.34;71.80;94979.13;5089758;28;20051;-77
2022/11/16 01:00:07;;;;;;;156.52;77.78;;;;;;;5.35;72.65;94977.28;5089494;28;20044;-77
2022/11/16 01:02:32;;;;;;;167.43;75.85;;;;;;;5.30;72.49;94975.41;5071609;28;20592;-78
2022/11/16 01:04:58;;;;;;;156.23;75.28;;;;;;;4.89;72.99;94905.78;5089778;28;20048;-77
2022/11/16 01:07:23;;;;;;;157.55;77.40;;;;;;;5.02;72.63;94920.41;5088866;28;20055;-78
2022/11/16 01:09:48;;;;;;;167.70;78.15;;;;;;;5.03;72.61;94914.09;5089934;28;20044;-77
2022/11/16 01:12:16;;;;;;;166.23;77.75;;;;;;;5.10;72.70;94935.75;5089716;28;20032;-77
2022/11/16 01:14:44;;;;;;;169.27;80.65;;;;;;;5.20;72.86;94943.72;5088816;28;20394;-77
2022/11/16 01:17:09;;;;;;;172.15;78.55;;;;;;;5.16;73.11;94939.22;5071279;28;20044;-77
2022/11/16 01:19:35;;;;;;;171.93;80.25;;;;;;;4.90;73.40;94898.69;5090091;28;20051;-78
2022/11/16 01:22:01;;;;;;;182.45;82.78;;;;;;;5.30;72.80;94946.50;5089758;28;20069;-78
2022/11/16 01:24:27;;;;;;;179.90;80.85;;;;;;;5.27;72.97;94943.53;5089651;28;20036;-78
2022/11/16 01:26:57;;;;;;;180.13;79.97;;;;;;;4.98;72.83;94906.94;5090095;28;20121;-78
2022/11/16 01:29:27;;;;;;;175.93;80.82;;;;;;;5.17;72.80;94925.03;5089201;28;20078;-78
2022/11/16 01:31:53;;;;;;;177.50;82.20;;;;;;;4.89;72.82;94897.88;5089334;28;20043;-78
2022/11/16 01:34:18;;;;;;;171.75;81.20;;;;;;;4.85;72.93;94891.53;5089536;28;20032;-78
2022/11/16 01:36:44;;;;;;;179.95;82.53;;;;;;;4.42;73.17;94826.66;5070479;28;20051;-78
2022/11/16 01:39:11;;;;;;;184.75;81.85;;;;;;;5.15;72.75;94948.94;5071368;28;20040;-78
2022/11/16 01:41:37;;;;;;;162.23;73.93;;;;;;;4.65;73.08;94889.44;5089520;28;20527;-78
2022/11/16 01:44:05;;;;;;;175.57;75.68;;;;;;;5.01;73.07;94945.09;5089411;28;20109;-78
2022/11/16 01:46:31;;;;;;;173.25;77.63;;;;;;;4.43;73.31;94861.56;5088882;28;20119;-78
2022/11/16 01:49:02;;;;;;;167.80;74.00;;;;;;;4.68;73.76;94905.75;5089232;28;20596;-77
2022/11/16 01:51:28;;;;;;;161.95;71.32;;;;;;;4.44;73.94;94881.53;5088827;28;20433;-78
2022/11/16 01:53:55;;;;;;;149.68;69.15;;;;;;;4.77;73.64;94928.75;5088926;28;20119;-78
2022/11/16 01:56:23;;;;;;;152.30;72.00;;;;;;;4.85;73.82;94948.56;5070874;28;20431;-78
2022/11/16 01:58:49;;;;;;;147.27;69.47;;;;;;;4.41;74.47;94884.66;5088624;28;20048;-75
2022/11/16 02:01:14;;;;;;;143.60;67.28;;;;;;;4.41;74.50;94895.16;5089392;28;20105;-78
2022/11/16 02:03:40;;;;;;;150.52;69.78;;;;;;;4.82;74.16;94941.94;5089380;28;20055;-78
2022/11/16 02:06:14;;;;;;;142.23;69.65;;;;;;;4.85;74.11;94940.69;5089147;28;20122;-78
2022/11/16 02:12:24;;;;;;;171.48;69.85;;;;;;;4.66;75.10;94919.94;5089499;28;20143;-78
2022/11/16 02:14:55;;;;;;;150.00;68.15;;;;;;;4.77;74.41;94918.25;5088696;28;20105;-75
2022/11/16 02:17:35;;;;;;;149.57;65.03;;;;;;;4.54;74.75;94882.47;5088843;28;20414;-76
2022/11/16 02:20:32;;;;;;;153.75;63.45;;;;;;;4.77;74.59;94914.81;5070322;28;20134;-76
2022/11/16 02:23:13;;;;;;;148.88;63.63;;;;;;;4.78;75.08;94913.78;5089171;28;20111;-76
2022/11/16 02:25:44;;;;;;;147.90;64.13;;;;;;;4.69;75.61;94917.88;5070931;28;20062;-76
2022/11/16 02:28:28;;;;;;;144.90;63.80;;;;;;;4.58;76.50;94925.59;5070452;28;20044;-76
2022/11/16 02:30:56;;;;;;;158.65;63.47;;;;;;;4.33;76.54;94883.25;5089079;28;20119;-76
2022/11/16 02:33:33;;;;;;;173.23;63.88;;;;;;;4.59;77.00;94919.31;5088984;28;20040;-76
2022/11/16 02:36:01;;;;;;;166.57;64.43;;;;;;;4.30;76.55;94854.03;5070055;28;20051;-76
2022/11/16 02:38:33;;;;;;;152.23;63.33;;;;;;;4.45;76.99;94878.69;5070611;28;20151;-76
2022/11/16 02:41:05;;;;;;;151.55;60.30;;;;;;;3.55;77.51;94729.44;5070700;28;20533;-77
2022/11/16 02:43:34;;;;;;;;;;;;;;;4.80;77.43;94903.84;5090259;28;20119;-76
2022/11/16 02:46:07;;;;;;;144.48;60.45;;;;;;;4.42;77.91;94876.56;5083610;28;20441;-76
2022/11/16 02:48:37;;;;;;;156.30;60.67;;;;;;;4.84;77.79;94913.59;5086669;28;20503;-77
2022/11/16 02:51:05;;;;;;;193.43;65.93;;;;;;;4.85;77.97;94903.88;5062623;28;20045;-77
2022/11/16 02:53:36;;;;;;;140.35;60.20;;;;;;;4.87;77.78;94902.63;5083745;28;20602;-77
2022/11/16 02:56:02;;;;;;;158.52;56.50;;;;;;;4.84;78.27;94904.91;5091647;28;20505;-77
2022/11/16 02:58:28;;;;;;;194.52;58.83;;;;;;;4.85;78.31;94896.00;5056560;28;20044;-77
2022/11/16 03:01:08;;;;;;;174.90;56.00;;;;;;;4.88;78.16;94895.53;5073337;28;20040;-77
2022/11/16 03:03:42;;;;;;;176.65;56.35;;;;;;;4.93;78.71;94899.00;5091810;28;20383;-77
2022/11/16 03:06:13;;;;;;;142.88;54.95;;;;;;;4.92;78.14;94894.00;5073196;28;20083;-77
2022/11/16 03:08:46;;;;;;;177.65;58.58;;;;;;;4.80;78.40;94870.47;5092035;28;20422;-77
2022/11/16 03:14:08;;;;;;;123.15;52.58;;;;;;;4.75;78.09;94853.84;5091450;28;20090;-77
2022/11/16 03:16:58;;;;;;;123.82;53.33;;;;;;;4.53;78.62;94809.19;5073707;28;20051;-77
2022/11/16 03:19:33;;;;;;;166.38;56.55;;;;;;;5.00;78.38;94893.56;5077891;28;20136;-77
2022/11/16 03:22:01;;;;;;;161.02;55.90;;;;;;;5.01;78.39;94890.69;5073747;28;20051;-77
2022/11/16 03:24:27;;;;;;;176.77;55.22;;;;;;;4.59;78.67;94821.34;5091760;28;20546;-77
2022/11/16 03:27:08;;;;;;;214.68;57.85;;;;;;;4.95;78.69;94864.59;5091173;28;20143;-77
2022/11/16 03:29:51;;;;;;;175.07;54.38;;;;;;;5.04;78.98;94876.25;5091375;28;20050;-77
2022/11/16 03:32:40;;;;;;;183.93;54.38;;;;;;;4.95;79.26;94888.25;5091389;28;20538;-76
2022/11/16 03:35:18;;;;;;;204.77;54.47;;;;;;;5.03;80.08;94877.31;5091237;28;20046;-76
2022/11/16 03:37:48;;;;;;;167.40;54.80;;;;;;;4.64;79.16;94819.59;5072696;28;20462;-76
2022/11/16 03:40:15;;;;;;;187.70;55.20;;;;;;;4.59;79.25;94806.38;5073113;28;20044;-76
2022/11/16 03:42:42;;;;;;;202.18;53.55;;;;;;;5.04;79.64;94876.25;5090796;28;20161;-77
2022/11/16 03:45:08;;;;;;;241.00;56.45;;;;;;;5.08;79.07;94872.09;5090977;28;20113;-77
2022/11/16 03:47:33;;;;;;;217.63;54.63;;;;;;;4.43;79.33;94786.22;5072314;28;20044;-76
2022/11/16 03:50:00;;;;;;;180.18;57.85;;;;;;;4.90;79.41;94857.44;5090707;28;20097;-76
2022/11/16 03:52:25;;;;;;;205.95;57.53;;;;;;;4.55;79.56;94815.78;5091295;28;20516;-77
2022/11/16 03:54:51;;;;;;;242.32;59.53;;;;;;;4.98;79.48;94864.09;5089820;28;20123;-76
2022/11/16 03:57:17;;;;;;;184.40;56.25;;;;;;;5.03;79.75;94872.81;5090260;28;20052;-76
2022/11/16 03:59:44;;;;;;;193.98;55.53;;;;;;;5.05;80.01;94870.75;5089889;28;20069;-77
2022/11/16 04:02:09;;;;;;;209.25;60.95;;;;;;;4.90;79.57;94838.25;5072395;28;20044;-76
2022/11/16 04:29:24;;;;;;;212.73;55.60;;;;;;;4.70;80.42;94780.22;5066079;28;20055;-76
2022/11/16 04:40:02;;;;;;;165.02;58.20;;;;;;;4.99;79.94;94821.81;5090203;28;20777;-77
2022/11/16 04:42:28;;;;;;;174.32;56.10;;;;;;;4.84;79.62;94797.19;5090214;28;20040;-77
2022/11/16 04:47:37;;;;;;;190.23;56.00;;;;;;;5.01;80.16;94830.25;5090470;28;20113;-77
2022/11/16 04:50:03;;;;;;;191.43;59.72;;;;;;;4.79;79.95;94797.94;5071295;28;20039;-77
2022/11/16 04:52:29;;;;;;;146.43;56.38;;;;;;;4.38;80.26;94740.75;5090094;28;20035;-77
2022/11/16 04:54:54;;;;;;;157.63;58.05;;;;;;;4.63;80.64;94764.66;5089927;28;20040;-77
2022/11/16 04:57:19;;;;;;;159.38;57.60;;;;;;;4.42;80.39;94719.03;5056849;28;20065;-77
2022/11/16 04:59:45;;;;;;;152.43;58.90;;;;;;;4.42;80.84;94729.53;5061301;28;20040;-77
2022/11/16 05:02:10;;;;;;;158.73;59.75;;;;;;;5.14;80.30;94830.88;5089117;28;20038;-77
2022/11/16 05:04:38;;;;;;;160.88;57.47;;;;;;;5.12;80.09;94823.25;5078334;28;20075;-77
2022/11/16 05:07:09;;;;;;;141.23;57.53;;;;;;;4.65;80.27;94752.09;5067843;28;20071;-77
2022/11/16 05:09:42;;;;;;;164.65;57.80;;;;;;;4.96;80.28;94803.88;5068917;28;20044;-77
2022/11/16 05:12:08;;;;;;;166.45;62.05;;;;;;;5.09;80.46;94826.38;5049085;28;20741;-77
2022/11/16 05:14:34;;;;;;;147.82;56.45;;;;;;;4.64;80.87;94748.66;5067715;28;20041;-77
2022/11/16 05:16:59;;;;;;;156.48;60.00;;;;;;;5.15;80.37;94820.13;5081144;28;20376;-77
2022/11/16 05:22:09;;;;;;;147.07;59.67;;;;;;;4.23;80.27;94665.25;5073769;28;20081;-78
2022/11/16 05:24:34;;;;;;;152.30;58.90;;;;;;;4.74;80.70;94753.22;5066679;28;20487;-77
2022/11/16 05:27:20;;;;;;;155.30;61.30;;;;;;;4.80;80.79;94754.88;5063832;28;20101;-79
2022/11/16 05:29:48;;;;;;;142.35;59.88;;;;;;;4.69;79.97;94721.66;5038184;28;20040;-78
2022/11/16 05:32:14;;;;;;;138.85;58.83;;;;;;;5.31;80.04;94826.34;5037424;28;20060;-78
2022/11/16 05:34:39;;;;;;;140.27;60.22;;;;;;;4.70;80.17;94733.75;5063668;28;20414;-78
2022/11/16 05:37:05;;;;;;;148.77;58.40;;;;;;;5.07;80.49;94781.16;5046026;28;20045;-78
2022/11/16 05:39:31;;;;;;;140.13;57.25;;;;;;;5.31;79.87;94821.06;5067557;28;20045;-78
2022/11/16 05:41:58;;;;;;;141.07;57.90;;;;;;;4.98;80.31;94791.31;5043493;28;20059;-77
2022/11/16 05:44:23;;;;;;;131.23;56.25;;;;;;;4.14;80.06;94637.84;5062409;28;20576;-77
2022/11/16 05:46:49;;;;;;;143.20;60.83;;;;;;;5.35;80.61;94822.94;5041356;28;20042;-78
2022/11/16 05:49:15;;;;;;;134.75;58.05;;;;;;;5.32;79.61;94812.94;5044637;28;20059;-77
2022/11/16 05:51:44;;;;;;;141.18;57.42;;;;;;;5.39;79.97;94821.41;5050685;28;20028;-77
2022/11/16 05:54:17;;;;;;;134.82;57.55;;;;;;;5.19;79.38;94783.63;5066691;28;20036;-78
2022/11/16 05:56:43;;;;;;;132.88;55.28;;;;;;;4.70;79.54;94719.81;5045962;28;20736;-79
2022/11/16 05:59:10;;;;;;;133.43;56.20;;;;;;;5.39;79.49;94820.63;5064724;28;20127;-78
2022/11/16 06:01:36;;;;;;;128.15;55.13;;;;;;;4.70;79.28;94714.56;5064115;28;20093;-79
2022/11/16 06:04:01;;;;;;;131.82;57.08;;;;;;;5.14;79.34;94779.09;5050920;28;20093;-78
2022/11/16 06:06:28;;;;;;;143.15;56.00;;;;;;;4.69;78.99;94711.16;5042500;28;20585;-80
2022/11/16 06:08:54;;;;;;;137.35;57.78;;;;;;;5.19;79.35;94796.78;5045035;28;20134;-78
2022/11/16 06:11:19;;;;;;;136.15;56.92;;;;;;;5.50;78.79;94824.13;5039516;28;20108;-77
2022/11/16 06:13:45;;;;;;;132.98;57.33;;;;;;;5.49;78.77;94822.56;5044231;28;20066;-80
2022/11/16 06:16:11;;;;;;;135.57;54.78;;;;;;;4.97;79.33;94736.38;5045753;28;20082;-78
2022/11/16 06:18:40;;;;;;;128.90;58.15;;;;;;;5.12;79.05;94759.34;5054132;28;20036;-80
2022/11/16 06:21:06;;;;;;;134.05;57.45;;;;;;;5.09;79.22;94746.72;5041314;28;20541;-81
2022/11/16 06:23:32;;;;;;;136.73;58.20;;;;;;;4.76;78.77;94689.94;5057380;28;20127;-80
2022/11/16 06:25:57;;;;;;;133.20;58.58;;;;;;;5.00;79.13;94743.75;5049490;28;20044;-80
2022/11/16 06:28:23;;;;;;;138.48;60.42;;;;;;;5.31;79.44;94774.53;5073640;28;20051;-80
2022/11/16 06:30:49;;;;;;;133.45;57.45;;;;;;;4.99;78.95;94706.16;5044860;28;20080;-79
2022/11/16 06:33:15;;;;;;;134.45;58.30;;;;;;;5.40;78.91;94775.66;5033252;28;20053;-82
2022/11/16 06:35:41;;;;;;;135.32;57.88;;;;;;;5.38;79.05;94769.06;5042921;28;20040;-81
2022/11/16 06:38:06;;;;;;;139.15;59.72;;;;;;;5.53;78.47;94777.06;5047057;28;20320;-80
2022/11/16 06:40:32;;;;;;;145.50;61.45;;;;;;;5.40;79.09;94770.41;5045784;28;20044;-81
2022/11/16 06:42:59;;;;;;;149.48;64.85;;;;;;;5.92;79.06;94825.03;5054186;28;20056;-80
2022/11/16 06:45:25;;;;;;;164.52;66.72;;;;;;;5.48;78.74;94758.63;5046784;28;20048;-80
2022/11/16 06:47:50;;;;;;;164.35;68.10;;;;;;;4.88;78.16;94656.44;5045870;28;20040;-81
2022/11/16 06:50:19;;;;;;;143.15;62.03;;;;;;;5.69;78.85;94781.41;5049845;28;20051;-79
2022/11/16 06:52:46;;;;;;;132.68;58.13;;;;;;;5.52;78.41;94775.50;5048936;28;20472;-81
2022/11/16 06:55:12;;;;;;;136.95;58.05;;;;;;;6.01;78.47;94820.09;5060816;28;20138;-81
2022/11/16 06:57:37;;;;;;;139.60;59.22;;;;;;;5.49;77.73;94739.19;5050022;28;20043;-80
2022/11/16 07:00:03;;;;;;;138.68;58.92;;;;;;;5.18;77.85;94677.69;5055602;28;20054;-79
2022/11/16 07:02:29;;;;;;;145.18;58.83;;;;;;;5.37;77.71;94697.28;5049066;28;20048;-80
2022/11/16 07:04:54;;;;;;;124.75;54.10;;;;;;;5.77;77.70;94759.91;5061366;28;20893;-79
2022/11/16 07:07:20;;;;;;;135.05;57.75;;;;;;;5.47;77.93;94701.81;5070221;28;20082;-77
2022/11/16 07:09:45;;;;;;;130.05;56.42;;;;;;;6.06;78.03;94786.69;5068652;28;20127;-80
2022/11/16 07:12:10;;;;;;;123.25;55.13;;;;;;;5.61;77.19;94720.56;5060366;28;20753;-83
2022/11/16 07:14:36;;;;;;;135.20;54.03;;;;;;;6.15;77.50;94790.44;5047829;28;20743;-79
2022/11/16 07:17:01;;;;;;;139.05;54.45;;;;;;;5.89;77.51;94746.56;5071206;28;20039;-78
2022/11/16 07:19:27;;;;;;;133.88;56.60;;;;;;;6.35;77.35;94804.75;5068435;28;20053;-80
2022/11/16 07:21:52;;;;;;;134.93;52.83;;;;;;;6.20;77.90;94774.66;5017078;28;20064;-78
2022/11/16 07:24:18;;;;;;;134.93;54.47;;;;;;;6.16;77.30;94772.78;5064449;28;20067;-77
2022/11/16 07:26:43;;;;;;;142.52;57.05;;;;;;;5.92;77.33;94735.53;5036310;28;20109;-77
2022/11/16 07:29:08;;;;;;;140.10;55.17;;;;;;;6.45;77.38;94802.97;5038806;28;20131;-77
2022/11/16 07:31:34;;;;;;;131.50;56.72;;;;;;;6.10;77.76;94737.72;5054885;28;20119;-78
2022/11/16 07:33:59;;;;;;;146.98;57.70;;;;;;;6.09;77.78;94753.81;5074518;28;20044;-78
2022/11/16 07:36:25;;;;;;;144.02;56.00;;;;;;;5.95;77.84;94703.44;5043560;28;20055;-80
2022/11/16 07:38:50;;;;;;;130.77;55.22;;;;;;;6.31;77.94;94749.16;5047199;28;20047;-78
2022/11/16 07:41:19;;;;;;;138.05;57.25;;;;;;;6.02;77.14;94700.59;5066006;28;20724;-77
2022/11/16 07:43:45;;;;;;;141.50;55.17;;;;;;;6.78;77.03;94804.44;5049758;28;20068;-79
2022/11/16 07:46:19;;;;;;;135.82;58.80;;;;;;;6.83;77.04;94791.25;5049734;28;20491;-78
2022/11/16 07:48:45;;;;;;;143.18;57.30;;;;;;;6.89;76.80;94798.13;5056816;28;20059;-78
2022/11/16 07:51:13;;;;;;;141.85;58.30;;;;;;;6.85;76.28;94798.91;5074609;28;20391;-79
2022/11/16 07:53:40;;;;;;;153.35;61.47;;;;;;;6.92;76.32;94789.72;5072700;28;20063;-80
2022/11/16 07:56:07;;;;;;;144.15;57.80;;;;;;;6.80;76.77;94770.69;5072321;28;20102;-83
2022/11/16 07:58:33;;;;;;;155.20;60.08;;;;;;;6.93;76.40;94790.50;5050221;28;20134;-82
2022/11/16 08:01:07;;;;;;;158.13;61.92;;;;;;;6.75;77.19;94788.31;5069429;28;20117;-78
2022/11/16 08:03:34;;;;;;;151.68;59.63;;;;;;;6.25;76.47;94689.63;5044106;28;20549;-78
2022/11/16 08:06:05;;;;;;;155.80;61.08;;;;;;;6.96;76.00;94784.69;5050523;28;20075;-79
2022/11/16 08:08:31;;;;;;;161.45;65.45;;;;;;;6.61;75.92;94726.63;5047311;28;20059;-84
2022/11/16 08:11:05;;;;;;;161.85;61.83;;;;;;;6.93;75.68;94767.56;5059440;28;20055;-77
2022/11/16 08:13:33;;;;;;;153.90;60.50;;;;;;;6.58;75.66;94707.63;5058512;28;20139;-80
2022/11/16 08:16:01;;;;;;;147.68;61.65;;;;;;;6.30;75.64;94671.22;5050480;28;20537;-79
2022/11/16 08:18:27;;;;;;;147.75;61.50;;;;;;;6.82;76.00;94733.53;5045218;28;20044;-76
2022/11/16 08:20:52;;;;;;;157.45;64.80;;;;;;;6.63;76.34;94690.28;5060336;28;20044;-77
2022/11/16 08:23:18;;;;;;;150.35;63.08;;;;;;;7.18;76.09;94769.44;5057569;28;20051;-77
2022/11/16 08:25:43;;;;;;;162.55;64.63;;;;;;;7.18;76.28;94760.72;5046781;28;22071;-78
2022/11/16 08:28:09;;;;;;;170.40;65.68;;;;;;;7.27;75.90;94762.59;5059488;28;20051;-80
2022/11/16 08:30:37;;;;;;;170.27;66.95;;;;;;;7.33;75.69;94758.13;5039305;28;20045;-77
2022/11/16 08:33:02;;;;;;;160.27;66.78;;;;;;;7.33;76.07;94758.13;5037565;28;20048;-79
2022/11/16 08:35:28;;;;;;;171.02;66.25;;;;;;;7.21;76.92;94750.47;5040663;28;20032;-78
2022/11/16 08:37:53;;;;;;;168.77;66.72;;;;;;;7.01;76.06;94707.47;5042988;28;20094;-78
2022/11/16 08:40:18;;;;;;;164.95;63.40;;;;;;;6.94;75.93;94676.84;5057991;28;20040;-78
2022/11/16 08:42:44;;;;;;;176.20;66.05;;;;;;;7.50;75.96;94752.59;5053543;28;20514;-78
2022/11/16 08:45:09;;;;;;;166.02;66.63;;;;;;;6.87;75.57;94657.09;5039507;28;20102;-77
2022/11/16 08:47:35;;;;;;;167.07;69.80;;;;;;;7.17;75.34;94694.00;5045889;28;20050;-79
2022/11/16 08:50:00;;;;;;;171.35;67.65;;;;;;;7.63;75.32;94750.19;5056253;28;20205;-78
2022/11/16 08:52:25;;;;;;;173.48;70.82;;;;;;;7.62;75.10;94747.84;5061423;28;20111;-80
2022/11/16 08:54:52;;;;;;;170.25;66.32;;;;;;;7.71;75.24;94751.50;5057203;28;20074;-80
2022/11/16 08:57:17;;;;;;;160.18;65.47;;;;;;;7.26;75.54;94676.59;5058791;28;20923;-79
2022/11/16 08:59:43;;;;;;;165.60;63.78;;;;;;;7.66;75.06;94720.66;5064825;28;20059;-82
2022/11/16 09:02:10;;;;;;;167.73;63.50;;;;;;;7.23;75.21;94647.34;5049921;28;20066;-81
2022/11/16 09:04:35;;;;;;;154.65;60.22;;;;;;;7.57;75.15;94690.56;5039869;28;20143;-83
2022/11/16 09:07:04;;;;;;;144.65;55.63;;;;;;;7.31;75.00;94639.69;5073130;28;20121;-89
2022/11/16 09:09:29;;;;;;;145.73;54.90;;;;;;;8.07;75.17;94742.50;5048889;28;20052;-80
2022/11/16 09:11:54;;;;;;;142.38;58.60;;;;;;;8.08;74.92;94733.53;5065044;28;20513;-79
2022/11/16 09:14:20;;;;;;;151.82;57.83;;;;;;;7.66;75.49;94652.03;5039387;28;20128;-80
2022/11/16 09:16:46;;;;;;;154.00;58.85;;;;;;;7.58;74.90;94606.91;5062041;28;20044;-80
2022/11/16 09:19:13;;;;;;;152.90;58.80;;;;;;;8.41;75.31;94723.38;5039890;28;20068;-78
2022/11/16 09:21:38;;;;;;;145.60;58.65;;;;;;;7.82;73.92;94621.09;5055273;28;20041;-81
2022/11/16 09:24:04;;;;;;;137.88;57.38;;;;;;;8.61;74.08;94709.31;5059945;28;20037;-80
2022/11/16 09:26:29;;;;;;;132.07;56.03;;;;;;;8.13;73.84;94627.06;5059543;28;20069;-80
2022/11/16 09:28:57;;;;;;;143.48;58.67;;;;;;;8.69;73.76;94664.59;5060431;28;20408;-80
2022/11/16 09:31:26;;;;;;;131.70;54.60;;;;;;;8.57;73.69;94628.97;5045748;28;20667;-79
2022/11/16 09:33:52;;;;;;;444.40;147.10;;;;;;;8.19;72.76;94575.00;5042045;28;20159;-79
2022/11/16 09:36:19;;;;;;;364.88;131.75;;;;;;;8.92;73.12;94671.06;5051320;28;20048;-78
2022/11/16 09:38:45;;;;;;;145.35;56.40;;;;;;;9.09;72.84;94684.66;5063404;28;20040;-79
2022/11/16 09:41:20;;;;;;;192.85;72.25;;;;;;;9.22;72.20;94673.47;5034094;28;20629;-81
2022/11/16 09:44:02;;;;;;;187.68;71.38;;;;;;;8.13;71.86;94479.94;5065283;28;20080;-86
2022/11/16 09:46:33;;;;;;;147.18;57.17;;;;;;;8.43;71.80;94521.25;5053940;28;20084;-82
2022/11/16 09:49:01;;;;;;;129.85;54.38;;;;;;;9.25;71.83;94627.94;5062645;28;20060;-82
2022/11/16 09:51:31;;;;;;;144.52;59.92;;;;;;;9.57;71.82;94667.09;5040707;28;20224;-78
2022/11/16 09:54:04;;;;;;;117.80;49.85;;;;;;;9.29;72.18;94615.75;5037799;28;20029;-79
2022/11/16 09:56:34;;;;;;;127.15;52.20;;;;;;;9.53;72.31;94652.84;5047836;28;20036;-79
2022/11/16 09:59:15;;;;;;;130.93;55.47;;;;;;;9.63;71.60;94646.63;5060295;28;20044;-77
2022/11/16 10:02:03;;;;;;;;;;;;;;;9.59;72.18;94638.47;5063248;28;20028;-82
2022/11/16 10:04:35;;;;;;;131.88;54.35;;;;;;;9.79;71.22;94637.47;5061970;28;19931;-78
2022/11/16 10:07:13;;;;;;;119.05;50.13;;;;;;;9.76;72.28;94629.31;5047575;28;20866;-80
2022/11/16 10:09:38;;;;;;;125.05;50.35;;;;;;;9.62;71.87;94584.16;5048719;28;20048;-80
2022/11/16 10:12:20;;;;;;;176.10;73.22;;;;;;;9.74;70.32;94571.34;5048538;28;20136;-79
2022/11/16 10:14:56;;;;;;;170.88;68.22;;;;;;;9.49;70.59;94518.66;5079707;28;20119;-78
2022/11/16 10:17:24;;;;;;;113.85;50.08;;;;;;;10.14;70.30;94599.22;5070541;28;20035;-77
2022/11/16 10:20:10;;;;;;;99.43;46.38;;;;;;;10.16;69.86;94561.81;5050612;28;20561;-77
2022/11/16 10:22:57;;;;;;;100.47;46.30;;;;;;;9.92;69.33;94499.06;5057317;28;20046;-78
2022/11/16 10:25:31;;;;;;;98.47;45.92;;;;;;;10.35;69.09;94550.19;5056766;28;20040;-78
2022/11/16 10:28:28;;;;;;;108.32;49.03;;;;;;;10.84;67.86;94592.13;5065076;28;20040;-78
2022/11/16 10:31:36;;;;;;;189.88;78.28;;;;;;;10.22;67.60;94513.78;5057499;28;20206;-81
2022/11/16 10:34:05;;;;;;;167.73;69.65;;;;;;;10.63;68.59;94576.81;5048978;28;20776;-79
2022/11/16 10:36:34;;;;;;;124.47;57.38;;;;;;;10.21;68.81;94522.84;5048347;28;20045;-77
2022/11/16 10:39:01;;;;;;;130.60;53.95;;;;;;;10.27;68.98;94577.34;5051458;28;20422;-78
2022/11/16 10:41:36;;;;;;;100.40;47.17;;;;;;;10.26;68.71;94556.41;5065174;28;20116;-78
2022/11/16 10:44:09;;;;;;;105.38;47.25;;;;;;;9.85;69.21;94506.56;5067569;28;20036;-77
2022/11/16 10:46:40;;;;;;;100.38;50.65;;;;;;;10.09;70.18;94546.25;5047298;28;20672;-77
2022/11/16 10:49:08;;;;;;;111.38;48.80;;;;;;;10.38;69.53;94567.38;5070495;28;20058;-77
2022/11/16 10:51:34;;;;;;;113.05;49.38;;;;;;;10.44;69.95;94560.94;5071537;28;20786;-77
2022/11/16 10:53:59;;;;;;;107.22;48.47;;;;;;;10.52;69.14;94551.56;5062282;28;20130;-79
2022/11/16 10:56:29;;;;;;;114.57;49.67;;;;;;;9.82;69.44;94462.16;5063683;28;20044;-78
2022/11/16 10:59:05;;;;;;;105.32;47.55;;;;;;;10.41;69.63;94524.38;5069797;28;20048;-77
2022/11/16 11:01:32;;;;;;;100.80;47.92;;;;;;;10.64;68.66;94518.22;5048576;28;20036;-77
2022/11/16 11:04:23;;;;;;;104.80;49.47;;;;;;;10.94;68.37;94537.34;5049123;28;20136;-77
2022/11/16 11:07:20;;;;;;;104.37;46.43;;;;;;;10.55;67.68;94482.81;5061292;28;20135;-77
2022/11/16 11:09:51;;;;;;;99.95;48.80;;;;;;;11.05;67.97;94528.16;5060810;28;20488;-77
2022/11/16 11:12:38;;;;;;;99.50;46.13;;;;;;;10.76;67.75;94480.59;5054898;28;20045;-77
2022/11/16 11:15:25;;;;;;;104.45;46.90;;;;;;;11.01;68.10;94522.63;5068601;28;20124;-77
2022/11/16 11:18:14;;;;;;;104.18;48.33;;;;;;;10.80;67.86;94468.34;5061899;28;20052;-78
2022/11/16 11:20:45;;;;;;;95.45;44.83;;;;;;;11.19;68.48;94511.19;5030893;28;20154;-78
2022/11/16 11:23:23;;;;;;;199.57;79.32;;;;;;;10.81;67.51;94440.75;5037765;28;20073;-81
2022/11/16 11:25:58;;;;;;;146.10;62.63;;;;;;;11.06;68.14;94466.06;5045531;28;20055;-79
2022/11/16 11:28:30;;;;;;;98.75;46.13;;;;;;;11.35;67.30;94471.09;5040594;28;20047;-80
2022/11/16 11:31:21;;;;;;;101.75;45.83;;;;;;;11.58;66.61;94494.00;5035934;28;20060;-78
2022/11/16 11:33:58;;;;;;;105.35;48.72;;;;;;;11.75;66.65;94485.47;5042424;28;20461;-78
2022/11/16 11:36:48;;;;;;;98.00;46.53;;;;;;;11.84;66.02;94481.78;5049270;28;20036;-78
2022/11/16 11:39:13;;;;;;;87.93;45.08;;;;;;;11.93;65.59;94484.53;5069159;28;20047;-77
2022/11/16 11:41:44;;;;;;;92.90;44.90;;;;;;;11.48;65.00;94407.34;5073433;28;20039;-78
2022/11/16 11:44:12;;;;;;;94.70;44.80;;;;;;;12.00;65.12;94471.63;5067492;28;20116;-77
2022/11/16 11:46:43;;;;;;;95.20;46.38;;;;;;;11.79;65.01;94435.97;5075280;28;20048;-77
2022/11/16 11:49:17;;;;;;;94.03;45.10;;;;;;;11.73;65.20;94429.94;5071837;28;20040;-78
2022/11/16 11:51:47;;;;;;;90.82;42.85;;;;;;;11.34;65.27;94384.56;5061476;28;20032;-78
2022/11/16 11:54:21;;;;;;;83.13;40.45;;;;;;;11.94;65.24;94467.50;5038913;28;20135;-77
2022/11/16 11:56:47;;;;;;;75.97;39.03;;;;;;;11.75;65.71;94458.91;5041979;28;20248;-77
2022/11/16 11:59:19;;;;;;;81.68;41.10;;;;;;;11.76;65.65;94445.28;5063403;28;20039;-77
2022/11/16 12:02:26;;;;;;;83.18;41.05;;;;;;;11.17;65.72;94356.75;5055831;28;20049;-78
2022/11/16 12:05:09;;;;;;;86.93;41.67;;;;;;;11.70;66.44;94432.41;5068022;28;20130;-78
2022/11/16 12:07:37;;;;;;;83.65;41.72;;;;;;;11.65;66.56;94437.81;5047355;28;20432;-77
2022/11/16 12:10:21;;;;;;;87.88;40.45;;;;;;;11.68;66.83;94442.53;5060536;28;20131;-79
2022/11/16 12:13:21;;;;;;;91.07;43.15;;;;;;;11.64;67.19;94431.72;5032305;28;20044;-77